This is the latest recevied weather packets stored in our database for station/object WR7DW-3. If no packets are shown the sender has not sent any weather packets the latest 10 day(s).
| Time | Temp. | Humidity | Pressure | Rain* | Wind** | Luminosity | Snow |
|---|---|---|---|---|---|---|---|
| 1777932881 | 3.89° C | 67% | 1005.5 hPa | 0 mm | - | - | - |
| 1777931981 | 3.89° C | 66% | 1005.7 hPa | 0 mm | - | - | - |
| 1777931081 | 4.44° C | 65% | 1005.6 hPa | 0 mm | - | - | - |
| 1777930181 | 4.44° C | 65% | 1005.3 hPa | 0 mm | - | - | - |
| 1777929281 | 5° C | 63% | 1005.6 hPa | 0 mm | - | - | - |
| 1777928381 | 5.56° C | 60% | 1005.4 hPa | 0 mm | - | - | - |
| 1777927481 | 5° C | 64% | 1005.6 hPa | 0 mm | - | - | - |
| 1777926581 | 5.56° C | 61% | 1005.4 hPa | 0 mm | - | - | - |
| 1777925681 | 6.11° C | 59% | 1005.4 hPa | 0 mm | - | - | - |
| 1777924781 | 5.56° C | 62% | 1005.4 hPa | 0 mm | - | - | - |
| 1777923881 | 5.56° C | 62% | 1005.4 hPa | 0 mm | - | - | - |
| 1777922981 | 6.11° C | 60% | 1005.6 hPa | 0 mm | - | - | - |
| 1777922081 | 5.56° C | 61% | 1005.6 hPa | 0 mm | - | - | - |
| 1777921181 | 5.56° C | 63% | 1005.6 hPa | 0 mm | - | - | - |
| 1777920281 | 5° C | 64% | 1005.6 hPa | 0 mm | - | - | - |
| 1777919382 | 5° C | 63% | 1005.7 hPa | 0 mm | - | - | - |
| 1777918481 | 4.44° C | 66% | 1005.4 hPa | 0 mm | - | - | - |
| 1777916681 | 3.89° C | 67% | 1005.4 hPa | 0 mm | - | - | - |
| 1777915782 | 3.89° C | 66% | 1005.4 hPa | 0 mm | - | - | - |
| 1777914882 | 3.89° C | 65% | 1005.1 hPa | 0 mm | - | - | - |
| 1777913985 | 3.89° C | 69% | 1004.9 hPa | 0 mm | - | - | - |
| 1777913081 | 2.78° C | 71% | 1004.9 hPa | 0 mm | - | - | - |
| 1777912182 | 2.78° C | 70% | 1004.9 hPa | 0 mm | - | - | - |
| 1777911282 | 2.78° C | 72% | 1004.7 hPa | 0 mm | - | - | - |
| 1777910389 | 2.78° C | 71% | 1004.6 hPa | 0 mm | - | - | - |
* Rain latest hour (hover to see other rain measurements)
** Current wind speed in m/s (hover to see current wind gust speed)